Aérodrome :
LOGIN :

S'inscrire | Disclaimer

   EN    FR    IT 

 










Légende :    VFR   VFR Marginal   IFR   IFR Intensif   IFR Très Intensif
Visi : 
Plafond : 
>= 8 km
>= 3000ft
5 à 8 km
1000 à 3000 ft
1500m à 5 km
500 à 1000 ft
800 à 1500m
200 à 500 ft
< 800m
< 200 ft
Symboles :   Orages  Brouillard  Fortes neiges  Fortes précipitations  Vent > 20 kt
SIGMETs :   Divers  Orages  Givrage  Turbulence  Onde Orograph.  Cendres Volcan.







- Altitude de l'aérodrome : 525 ft
- Code IATA : VAF
- Voir les cartes d'approche


LFLU - Valence

DERNIER METAR :
  • 131800Z AUTO 21015KT 9999 -RA OVC052 05/01 Q1015

METARs EXPIRÉS :
  • 131730Z AUTO 21012KT 9999 BKN060 BKN078 OVC094 06/01 Q1015
  • 131700Z AUTO 20015KT 9999 BKN092 OVC150 06/00 Q1015
  • 131630Z AUTO 21014KT 9999 FEW068 BKN088 OVC140 05/01 Q1016
  • 131600Z AUTO 21015KT 9999 SCT078 OVC090 05/01 Q1016
  • 131530Z AUTO 21014KT 9999 OVC088 05/01 Q1016

TAF N/A
Pas de NOTAMs connus pour ce terrain.
1 SIGMET publié pour la FIR Marseille (LFMM) :
 
Onde orographique forte
LFMM SIGMET 4 VALID 131700/132000 LFPW
LFMM MARSEILLE FIR/UIR SEV MTW FCST E OF E00900 SFC/FL320 STNR NC=



MET'MAP, la Météo Aéronautique d'un coup d'oeil ! - Copyright ORBIFLY Décembre 2007 - Disclaimer

ORBIFLY MET'MAP TEAM :

Programmation & Développement : Alexandra Zaïnal
Conception & Développement : Baudouin d'Aumeries
Co-Programmation & Développement : Marc-Olivier Méhu
Soutien technique & logistique : Manuel Goepfert

Contact : metmap@orbifly.com




SOURCES & CREDITS :

   NOAA